createdAt,value
2019-02-15T00:02:13.343Z,1.74
2019-02-15T00:04:44.798Z,1.70
2019-02-15T00:07:16.291Z,1.78
2019-02-15T00:09:47.996Z,1.82
2019-02-15T00:12:19.511Z,1.81
2019-02-15T00:14:51.451Z,1.78
2019-02-15T00:17:50.742Z,1.72
2019-02-15T00:20:30.371Z,1.67
2019-02-15T00:23:02.030Z,1.71
2019-02-15T00:25:37.229Z,1.66
2019-02-15T00:28:11.632Z,1.66
2019-02-15T00:30:43.099Z,1.67
2019-02-15T00:33:14.665Z,1.65
2019-02-15T00:35:47.341Z,1.61
2019-02-15T00:38:19.010Z,1.58
2019-02-15T00:40:50.570Z,1.60
2019-02-15T00:43:22.619Z,1.69
2019-02-15T00:46:13.191Z,1.67
2019-02-15T00:48:44.888Z,1.61
2019-02-15T00:51:35.280Z,1.53
2019-02-15T00:54:25.669Z,1.55
2019-02-15T00:57:27.029Z,1.63
2019-02-15T01:00:10.821Z,1.63
2019-02-15T01:03:06.251Z,1.64
2019-02-15T01:05:51.676Z,1.54
2019-02-15T01:08:53.953Z,1.47
2019-02-15T01:11:29.231Z,1.51
2019-02-15T01:14:00.680Z,1.48
2019-02-15T01:16:32.409Z,1.54
2019-02-15T01:19:03.914Z,1.47
2019-02-15T01:21:35.627Z,1.47
2019-02-15T01:24:07.288Z,1.42
2019-02-15T01:26:44.699Z,1.38
2019-02-15T01:29:47.281Z,1.36
2019-02-15T01:32:31.871Z,1.48
2019-02-15T01:35:37.159Z,1.39
2019-02-15T01:38:27.539Z,1.41
2019-02-15T01:41:21.098Z,1.30
2019-02-15T01:44:14.690Z,1.31
2019-02-15T01:46:53.052Z,1.39
2019-02-15T01:49:24.767Z,1.35
2019-02-15T01:51:56.405Z,1.31
2019-02-15T01:54:29.556Z,1.35
2019-02-15T01:57:01.100Z,1.40
2019-02-15T01:59:32.687Z,1.40
2019-02-15T02:02:04.201Z,1.41
2019-02-15T02:04:35.771Z,1.48
2019-02-15T02:07:07.271Z,1.41
2019-02-15T02:09:38.829Z,1.45
2019-02-15T02:12:10.770Z,1.34
2019-02-15T02:14:42.347Z,1.38
2019-02-15T02:17:13.940Z,1.35
2019-02-15T02:19:45.627Z,1.45
2019-02-15T02:22:17.210Z,1.48
2019-02-15T02:24:48.746Z,1.55
2019-02-15T02:27:20.546Z,1.50
2019-02-15T02:29:52.177Z,1.45
2019-02-15T02:32:24.947Z,1.42
2019-02-15T02:34:56.586Z,1.50
2019-02-15T02:37:28.231Z,1.49
2019-02-15T02:39:59.866Z,1.48
2019-02-15T02:42:31.589Z,1.46
2019-02-15T02:45:03.034Z,1.42
2019-02-15T02:47:34.668Z,1.41
2019-02-15T02:50:08.041Z,1.39
2019-02-15T02:52:39.600Z,1.38
2019-02-15T02:55:11.192Z,1.39
2019-02-15T02:57:42.849Z,1.39
2019-02-15T03:00:16.981Z,1.41
2019-02-15T03:02:48.479Z,1.41
2019-02-15T03:05:22.330Z,1.43
2019-02-15T03:07:53.866Z,1.41
2019-02-15T03:10:25.446Z,1.39
2019-02-15T03:12:57.090Z,1.39
2019-02-15T03:15:28.646Z,1.40
2019-02-15T03:18:00.324Z,1.38
2019-02-15T03:20:31.955Z,1.42
2019-02-15T03:23:03.518Z,1.37
2019-02-15T03:25:36.845Z,1.41
2019-02-15T03:28:08.294Z,1.45
2019-02-15T03:30:39.978Z,1.44
2019-02-15T03:33:11.639Z,1.42
2019-02-15T03:35:55.723Z,1.50
2019-02-15T03:38:33.764Z,1.43
2019-02-15T03:41:06.442Z,1.40
2019-02-15T03:43:37.994Z,1.36
2019-02-15T03:46:12.642Z,1.35
2019-02-15T03:48:44.202Z,1.36
2019-02-15T03:51:17.062Z,1.41
2019-02-15T03:53:48.585Z,1.46
2019-02-15T03:56:24.354Z,1.45
2019-02-15T03:58:55.794Z,1.44
2019-02-15T04:01:27.372Z,1.42
2019-02-15T04:03:59.015Z,1.48
2019-02-15T04:06:30.604Z,1.49
2019-02-15T04:09:02.212Z,1.45
2019-02-15T04:11:34.407Z,1.43
2019-02-15T04:14:06.103Z,1.48
2019-02-15T04:16:37.873Z,1.48
2019-02-15T04:19:09.575Z,1.46
2019-02-15T04:21:41.101Z,1.46
2019-02-15T04:24:13.561Z,1.48
2019-02-15T04:26:45.576Z,1.44
2019-02-15T04:29:17.061Z,1.45
2019-02-15T04:31:48.639Z,1.48
2019-02-15T04:34:22.668Z,1.46
2019-02-15T04:36:55.320Z,1.44
2019-02-15T04:39:26.781Z,1.44
2019-02-15T04:41:58.518Z,1.44
2019-02-15T04:44:30.219Z,1.41
2019-02-15T04:47:01.841Z,1.38
2019-02-15T04:49:33.305Z,1.38
2019-02-15T04:52:04.784Z,1.35
2019-02-15T04:54:36.501Z,1.45
2019-02-15T04:57:08.107Z,1.44
2019-02-15T04:59:39.793Z,1.47
2019-02-15T05:02:13.870Z,1.45
2019-02-15T05:04:45.419Z,1.43
2019-02-15T05:07:16.922Z,1.35
2019-02-15T05:09:48.532Z,1.46
2019-02-15T05:12:20.140Z,1.45
2019-02-15T05:14:53.612Z,1.51
2019-02-15T05:17:27.906Z,1.51
2019-02-15T05:19:59.453Z,1.51
2019-02-15T05:22:30.901Z,1.52
2019-02-15T05:25:04.837Z,1.49
2019-02-15T05:27:36.513Z,1.44
2019-02-15T05:30:08.380Z,1.43
2019-02-15T05:32:41.317Z,1.49
2019-02-15T05:35:12.881Z,1.50
2019-02-15T05:37:44.306Z,1.49
2019-02-15T05:40:15.950Z,1.24
2019-02-15T05:42:47.449Z,1.52
2019-02-15T05:45:19.128Z,1.57
2019-02-15T05:47:50.624Z,1.67
2019-02-15T05:50:22.152Z,1.64
2019-02-15T05:52:53.811Z,1.54
2019-02-15T05:55:25.412Z,1.52
2019-02-15T05:57:56.972Z,1.55
2019-02-15T06:00:36.873Z,1.58
2019-02-15T06:03:01.885Z,1.57
2019-02-15T06:05:33.573Z,1.54
2019-02-15T06:08:05.177Z,1.55
2019-02-15T06:10:36.902Z,1.58
2019-02-15T06:13:08.570Z,1.64
2019-02-15T06:15:40.112Z,1.60
2019-02-15T06:18:11.738Z,1.60
2019-02-15T06:20:43.262Z,1.55
2019-02-15T06:23:14.864Z,1.61
2019-02-15T06:25:46.404Z,1.62
2019-02-15T06:28:18.053Z,1.68
2019-02-15T06:30:49.717Z,1.64
2019-02-15T06:33:21.418Z,1.65
2019-02-15T06:35:53.058Z,1.73
2019-02-15T06:38:34.329Z,1.70
2019-02-15T06:40:58.142Z,1.70
2019-02-15T06:43:30.724Z,1.68
2019-02-15T06:46:02.335Z,1.67
2019-02-15T06:48:33.800Z,1.70
2019-02-15T06:51:05.567Z,1.72
2019-02-15T06:53:37.187Z,1.79
2019-02-15T06:56:08.779Z,1.80
2019-02-15T06:58:48.743Z,1.79
2019-02-15T07:01:29.293Z,1.78
2019-02-15T07:04:25.432Z,1.80
2019-02-15T07:06:57.131Z,1.75
2019-02-15T07:09:28.669Z,1.79
2019-02-15T07:12:00.300Z,1.76
2019-02-15T07:14:31.951Z,1.74
2019-02-15T07:17:03.628Z,1.77
2019-02-15T07:19:35.140Z,1.71
2019-02-15T07:22:06.701Z,1.72
2019-02-15T07:24:38.301Z,1.76
2019-02-15T07:27:09.842Z,1.79
2019-02-15T07:29:41.473Z,1.87
2019-02-15T07:32:13.013Z,1.80
2019-02-15T07:34:44.733Z,1.80
2019-02-15T07:37:16.368Z,1.79
2019-02-15T07:39:48.068Z,1.78
2019-02-15T07:42:21.155Z,1.82
2019-02-15T07:44:54.687Z,1.80
2019-02-15T07:47:26.269Z,1.90
2019-02-15T07:49:57.757Z,1.92
2019-02-15T07:52:29.485Z,1.92
2019-02-15T07:55:00.971Z,1.88
2019-02-15T07:57:33.958Z,1.84
2019-02-15T08:00:07.029Z,1.90
2019-02-15T08:02:38.590Z,1.89
2019-02-15T08:05:12.373Z,1.87
2019-02-15T08:07:44.027Z,1.88
2019-02-15T08:10:15.689Z,1.83
2019-02-15T08:12:47.435Z,1.84
2019-02-15T08:15:19.157Z,1.90
2019-02-15T08:17:50.807Z,1.90
2019-02-15T08:20:22.481Z,1.92
2019-02-15T08:22:54.075Z,1.90
2019-02-15T08:25:25.705Z,1.94
2019-02-15T08:27:57.331Z,1.96
2019-02-15T08:30:28.868Z,2.02
2019-02-15T08:33:00.402Z,2.08
2019-02-15T08:35:32.205Z,2.06
2019-02-15T08:38:03.890Z,1.97
2019-02-15T08:40:37.420Z,1.92
2019-02-15T08:43:08.827Z,1.96
2019-02-15T08:45:41.390Z,1.99
2019-02-15T08:48:12.913Z,1.99
2019-02-15T08:50:45.749Z,2.07
2019-02-15T08:53:17.497Z,2.14
2019-02-15T08:55:49.132Z,2.23
2019-02-15T08:58:23.792Z,2.17
2019-02-15T09:00:55.527Z,2.16
2019-02-15T09:03:27.137Z,2.16
2019-02-15T09:05:58.815Z,2.18
2019-02-15T09:08:30.326Z,2.07
2019-02-15T09:11:02.414Z,2.08
2019-02-15T09:13:34.214Z,2.10
2019-02-15T09:16:10.290Z,2.13
2019-02-15T09:18:39.179Z,2.13
2019-02-15T09:21:11.012Z,2.16
2019-02-15T09:23:43.821Z,2.16
2019-02-15T09:26:18.205Z,2.14
2019-02-15T09:28:52.942Z,2.06
2019-02-15T09:31:24.582Z,2.11
2019-02-15T09:33:56.297Z,2.13
2019-02-15T09:36:28.002Z,2.08
2019-02-15T09:38:59.805Z,2.13
2019-02-15T09:41:31.463Z,2.16
2019-02-15T09:44:03.030Z,2.25
2019-02-15T09:46:38.171Z,2.30
2019-02-15T09:49:09.723Z,2.35
2019-02-15T09:51:41.310Z,2.36
2019-02-15T09:54:12.877Z,2.34
2019-02-15T09:56:44.650Z,2.34
2019-02-15T09:59:16.245Z,2.28
2019-02-15T10:01:47.915Z,2.35
2019-02-15T10:04:19.865Z,2.38
2019-02-15T10:06:51.567Z,2.54
2019-02-15T10:09:23.166Z,2.60
2019-02-15T10:11:54.937Z,2.66
2019-02-15T10:14:26.457Z,2.71
2019-02-15T10:16:58.219Z,2.83
2019-02-15T10:19:29.804Z,2.78
2019-02-15T10:22:01.397Z,2.83
2019-02-15T10:24:33.201Z,2.92
2019-02-15T10:27:04.930Z,2.90
2019-02-15T10:29:36.550Z,2.81
2019-02-15T10:32:08.345Z,2.76
2019-02-15T10:34:41.117Z,2.70
2019-02-15T10:37:15.458Z,2.55
2019-02-15T10:39:47.073Z,2.57
2019-02-15T10:42:18.654Z,2.67
2019-02-15T10:44:50.355Z,2.66
2019-02-15T10:47:25.288Z,2.69
2019-02-15T10:49:57.847Z,2.67
2019-02-15T10:52:29.336Z,2.82
2019-02-15T10:55:00.833Z,2.97
2019-02-15T10:57:32.371Z,3.00
2019-02-15T11:00:04.031Z,2.98
2019-02-15T11:02:35.706Z,3.11
2019-02-15T11:05:08.181Z,3.02
2019-02-15T11:07:39.930Z,2.97
2019-02-15T11:10:11.678Z,2.88
2019-02-15T11:12:43.348Z,2.89
2019-02-15T11:15:15.332Z,2.88
2019-02-15T11:17:47.122Z,2.75
2019-02-15T11:20:18.900Z,2.74
2019-02-15T11:22:56.886Z,2.79
2019-02-15T11:25:28.644Z,2.79
2019-02-15T11:28:00.189Z,2.74
2019-02-15T11:30:31.786Z,2.70
2019-02-15T11:33:03.382Z,2.59
2019-02-15T11:35:35.002Z,2.68
2019-02-15T11:38:07.885Z,2.64
2019-02-15T11:40:39.771Z,2.65
2019-02-15T11:43:11.293Z,2.65
2019-02-15T11:45:42.914Z,2.67
2019-02-15T11:48:14.383Z,2.66
2019-02-15T11:50:46.055Z,2.60
2019-02-15T11:53:20.421Z,2.61
2019-02-15T11:55:52.081Z,2.58
2019-02-15T11:58:26.011Z,2.61
2019-02-15T12:00:57.651Z,2.64
2019-02-15T12:03:29.249Z,2.67
2019-02-15T12:06:00.954Z,2.70
2019-02-15T12:08:32.443Z,2.79
2019-02-15T12:11:05.244Z,2.87
2019-02-15T12:13:39.714Z,2.84
2019-02-15T12:16:11.296Z,2.79
2019-02-15T12:18:42.914Z,2.82
2019-02-15T12:21:14.453Z,2.80
2019-02-15T12:23:47.489Z,2.75
2019-02-15T12:26:19.175Z,2.81
2019-02-15T12:28:50.806Z,2.86
2019-02-15T12:31:22.335Z,2.97
2019-02-15T12:33:53.949Z,2.99
2019-02-15T12:36:25.647Z,3.08
2019-02-15T12:38:57.329Z,2.98
2019-02-15T12:41:29.195Z,2.93
2019-02-15T12:44:00.869Z,2.87
2019-02-15T12:46:32.386Z,2.90
2019-02-15T12:49:03.997Z,2.91
2019-02-15T12:51:35.576Z,2.89
2019-02-15T12:54:08.848Z,2.83
2019-02-15T12:56:40.532Z,2.91
2019-02-15T12:59:11.988Z,2.98
2019-02-15T13:01:43.589Z,2.98
2019-02-15T13:04:15.226Z,2.85
2019-02-15T13:06:47.044Z,2.79
2019-02-15T13:09:18.684Z,2.80
2019-02-15T13:11:50.360Z,2.80
2019-02-15T13:14:22.007Z,2.82
2019-02-15T13:16:53.636Z,2.89
2019-02-15T13:19:25.339Z,3.05
2019-02-15T13:21:56.848Z,3.14
2019-02-15T13:24:28.523Z,3.08
2019-02-15T13:27:00.213Z,2.97
2019-02-15T13:29:31.849Z,2.92
2019-02-15T13:32:03.594Z,2.96
2019-02-15T13:34:35.386Z,2.82
2019-02-15T13:37:07.052Z,2.82
2019-02-15T13:39:38.676Z,2.92
2019-02-15T13:42:10.309Z,2.82
2019-02-15T13:44:42.010Z,2.83
2019-02-15T13:47:13.621Z,2.86
2019-02-15T13:49:46.638Z,2.83
2019-02-15T13:52:18.257Z,2.89
2019-02-15T13:54:51.697Z,2.86
2019-02-15T13:57:23.545Z,2.89
2019-02-15T13:59:55.105Z,2.80
2019-02-15T14:02:26.696Z,2.81
2019-02-15T14:04:58.305Z,2.82
2019-02-15T14:07:29.797Z,2.75
2019-02-15T14:10:04.238Z,2.68
2019-02-15T14:12:36.993Z,2.62
2019-02-15T14:15:11.501Z,2.63
2019-02-15T14:17:46.353Z,2.61
2019-02-15T14:20:16.266Z,2.56
2019-02-15T14:22:47.915Z,2.52
2019-02-15T14:25:20.723Z,2.54
2019-02-15T14:27:52.485Z,2.56
2019-02-15T14:30:24.083Z,2.54
2019-02-15T14:32:55.748Z,2.45
2019-02-15T14:35:27.296Z,2.41
2019-02-15T14:38:00.284Z,2.41
2019-02-15T14:40:31.864Z,2.36
2019-02-15T14:43:03.636Z,2.32
2019-02-15T14:45:35.095Z,2.33
2019-02-15T14:48:06.793Z,2.35
2019-02-15T14:50:38.375Z,2.29
2019-02-15T14:53:10.116Z,2.32
2019-02-15T14:55:44.118Z,2.27
2019-02-15T14:58:16.020Z,2.23
2019-02-15T15:00:47.503Z,2.26
2019-02-15T15:03:20.552Z,2.19
2019-02-15T15:05:52.094Z,2.21
2019-02-15T15:08:23.698Z,2.21
2019-02-15T15:10:55.225Z,2.18
2019-02-15T15:13:26.928Z,2.16
2019-02-15T15:15:58.496Z,2.14
2019-02-15T15:18:30.265Z,2.11
2019-02-15T15:21:01.874Z,2.14
2019-02-15T15:23:33.697Z,2.08
2019-02-15T15:26:11.608Z,2.07
2019-02-15T15:28:38.800Z,2.00
2019-02-15T15:31:11.235Z,1.97
2019-02-15T15:33:43.132Z,1.89
2019-02-15T15:36:14.790Z,1.92
2019-02-15T15:38:46.333Z,1.87
2019-02-15T15:41:17.860Z,1.85
2019-02-15T15:43:49.381Z,1.82
2019-02-15T15:46:20.995Z,1.74
2019-02-15T15:48:52.433Z,1.75
2019-02-15T15:51:24.132Z,1.78
2019-02-15T15:53:55.594Z,1.76
2019-02-15T15:56:27.150Z,1.73
2019-02-15T15:58:58.824Z,1.76
2019-02-15T16:01:30.415Z,1.79
2019-02-15T16:04:02.073Z,1.83
2019-02-15T16:06:35.116Z,1.82
2019-02-15T16:09:08.095Z,1.77
2019-02-15T16:11:39.862Z,1.78
2019-02-15T16:14:11.394Z,1.78
2019-02-15T16:16:43.153Z,1.80
2019-02-15T16:19:14.678Z,1.81
2019-02-15T16:21:46.364Z,1.86
2019-02-15T16:24:17.828Z,1.92
2019-02-15T16:26:49.537Z,1.90
2019-02-15T16:29:22.428Z,1.95
2019-02-15T16:31:54.125Z,1.93
2019-02-15T16:34:25.693Z,1.95
2019-02-15T16:36:57.396Z,1.94
2019-02-15T16:39:28.946Z,1.90
2019-02-15T16:42:00.622Z,1.92
2019-02-15T16:44:32.264Z,1.88
2019-02-15T16:47:03.867Z,1.84
2019-02-15T16:49:35.500Z,1.88
2019-02-15T16:52:07.092Z,1.87
2019-02-15T16:54:38.714Z,1.83
2019-02-15T16:57:10.289Z,1.81
2019-02-15T16:59:41.981Z,1.89
2019-02-15T17:02:18.728Z,1.82
2019-02-15T17:04:47.079Z,1.84
2019-02-15T17:07:18.773Z,1.82
2019-02-15T17:09:52.714Z,1.78
2019-02-15T17:12:27.066Z,1.84
2019-02-15T17:14:58.544Z,1.80
2019-02-15T17:17:30.249Z,1.78
2019-02-15T17:20:01.761Z,1.77
2019-02-15T17:22:33.593Z,1.72
2019-02-15T17:25:05.195Z,1.70
2019-02-15T17:27:37.016Z,1.67
2019-02-15T17:30:09.215Z,1.65
2019-02-15T17:32:43.216Z,1.70
2019-02-15T17:35:14.828Z,1.70
2019-02-15T17:37:46.489Z,1.71
2019-02-15T17:40:18.182Z,1.61
2019-02-15T17:42:49.908Z,1.49
2019-02-15T17:45:21.512Z,1.48
2019-02-15T17:47:55.311Z,1.48
2019-02-15T17:50:26.914Z,1.41
2019-02-15T17:53:01.005Z,1.38
2019-02-15T17:55:32.543Z,1.36
2019-02-15T17:58:05.607Z,1.37
2019-02-15T18:00:37.226Z,1.38
2019-02-15T18:03:08.790Z,1.34
2019-02-15T18:05:40.333Z,1.23
2019-02-15T18:08:12.061Z,1.25
2019-02-15T18:10:43.703Z,1.22
2019-02-15T18:13:15.277Z,1.12
2019-02-15T18:15:46.837Z,1.17
2019-02-15T18:18:18.495Z,1.19
2019-02-15T18:20:50.052Z,1.19
2019-02-15T18:23:21.720Z,1.17
2019-02-15T18:25:53.279Z,1.19
2019-02-15T18:28:24.930Z,1.15
2019-02-15T18:30:57.699Z,1.09
2019-02-15T18:33:30.909Z,1.03
2019-02-15T18:36:04.037Z,1.08
2019-02-15T18:38:41.006Z,1.04
2019-02-15T18:41:13.746Z,1.00
2019-02-15T18:43:45.919Z,1.09
2019-02-15T18:46:17.499Z,1.12
2019-02-15T18:48:49.142Z,1.03
2019-02-15T18:51:20.767Z,0.96
2019-02-15T18:53:52.403Z,0.94
2019-02-15T18:56:23.928Z,0.99
2019-02-15T18:58:55.731Z,0.89
2019-02-15T19:01:27.352Z,0.88
2019-02-15T19:03:58.994Z,0.93
2019-02-15T19:06:30.600Z,1.00
2019-02-15T19:09:02.200Z,1.05
2019-02-15T19:11:34.940Z,0.72
2019-02-15T19:14:06.644Z,1.01
2019-02-15T19:16:40.922Z,1.02
2019-02-15T19:19:14.733Z,0.96
2019-02-15T19:21:47.705Z,1.00
2019-02-15T19:24:19.633Z,0.95
2019-02-15T19:26:51.351Z,0.90
2019-02-15T19:29:23.172Z,0.92
2019-02-15T19:31:56.996Z,0.98
2019-02-15T19:34:28.379Z,1.01
2019-02-15T19:36:59.859Z,1.04
2019-02-15T19:39:31.663Z,1.07
2019-02-15T19:42:03.964Z,1.04
2019-02-15T19:44:35.655Z,1.16
2019-02-15T19:47:07.314Z,1.18
2019-02-15T19:49:40.654Z,1.20
2019-02-15T19:52:12.233Z,1.23
2019-02-15T19:54:44.959Z,1.29
2019-02-15T19:57:16.643Z,1.34
2019-02-15T19:59:53.782Z,1.36
2019-02-15T20:02:21.872Z,1.37
2019-02-15T20:04:53.415Z,1.34
2019-02-15T20:07:26.356Z,1.39
2019-02-15T20:09:58.049Z,1.39
2019-02-15T20:12:29.573Z,1.40
2019-02-15T20:15:01.241Z,1.37
2019-02-15T20:17:32.769Z,1.39
2019-02-15T20:20:04.468Z,1.43
2019-02-15T20:22:36.168Z,1.48
2019-02-15T20:25:08.459Z,1.51
2019-02-15T20:27:40.200Z,1.55
2019-02-15T20:30:14.512Z,1.56
2019-02-15T20:32:46.222Z,1.53
2019-02-15T20:35:17.882Z,1.58
2019-02-15T20:37:49.555Z,1.53
2019-02-15T20:40:21.086Z,1.53
2019-02-15T20:42:52.845Z,1.49
2019-02-15T20:45:24.411Z,1.49
2019-02-15T20:47:58.551Z,1.53
2019-02-15T20:50:30.112Z,1.48
2019-02-15T20:53:01.813Z,1.49
2019-02-15T20:55:33.484Z,1.48
2019-02-15T20:58:05.055Z,1.50
2019-02-15T21:00:36.724Z,1.54
2019-02-15T21:03:08.322Z,1.57
2019-02-15T21:05:39.892Z,1.59
2019-02-15T21:08:11.587Z,1.62
2019-02-15T21:10:43.152Z,1.57
2019-02-15T21:13:20.458Z,1.55
2019-02-15T21:15:48.175Z,1.61
2019-02-15T21:18:19.811Z,1.62
2019-02-15T21:20:51.510Z,1.60
2019-02-15T21:23:22.987Z,1.70
2019-02-15T21:25:54.824Z,1.70
2019-02-15T21:28:26.402Z,1.70
2019-02-15T21:30:58.125Z,1.69
2019-02-15T21:33:29.745Z,1.59
2019-02-15T21:36:01.235Z,1.65
2019-02-15T21:38:32.968Z,1.62
2019-02-15T21:41:04.600Z,1.55
2019-02-15T21:43:36.174Z,1.61
2019-02-15T21:46:07.893Z,1.61
2019-02-15T21:48:39.726Z,1.62
2019-02-15T21:51:11.527Z,1.65
2019-02-15T21:53:44.761Z,1.62
2019-02-15T21:56:16.517Z,1.60
2019-02-15T21:58:49.440Z,1.64
2019-02-15T22:01:21.110Z,1.65
2019-02-15T22:03:52.688Z,1.66
2019-02-15T22:06:24.360Z,1.69
2019-02-15T22:08:55.982Z,1.68
2019-02-15T22:11:27.540Z,1.74
2019-02-15T22:13:59.160Z,1.70
2019-02-15T22:16:30.773Z,1.73
2019-02-15T22:19:02.433Z,1.66
2019-02-15T22:21:34.128Z,1.77
2019-02-15T22:24:05.899Z,1.78
2019-02-15T22:26:38.593Z,1.77
2019-02-15T22:29:10.235Z,1.71
2019-02-15T22:31:45.115Z,1.69
2019-02-15T22:34:16.865Z,1.69
2019-02-15T22:36:49.403Z,1.71
2019-02-15T22:39:21.021Z,1.70
2019-02-15T22:41:52.545Z,1.72
2019-02-15T22:44:24.253Z,1.73
2019-02-15T22:46:58.678Z,1.78
2019-02-15T22:49:30.399Z,1.73
2019-02-15T22:52:03.258Z,1.75
2019-02-15T22:54:34.915Z,1.67
2019-02-15T22:57:08.060Z,1.74
2019-02-15T22:59:39.666Z,1.72
2019-02-15T23:02:13.305Z,1.66
2019-02-15T23:04:44.846Z,1.62
2019-02-15T23:07:17.458Z,1.68
2019-02-15T23:09:49.062Z,1.64
2019-02-15T23:12:21.336Z,1.64
2019-02-15T23:14:52.939Z,1.59
2019-02-15T23:17:24.547Z,1.56
2019-02-15T23:19:56.165Z,1.64
2019-02-15T23:22:35.571Z,1.67
2019-02-15T23:25:07.423Z,1.67
2019-02-15T23:27:39.048Z,1.65
2019-02-15T23:30:10.752Z,1.70
2019-02-15T23:32:42.346Z,1.67
2019-02-15T23:35:14.017Z,1.71
2019-02-15T23:37:45.792Z,1.71
2019-02-15T23:40:18.765Z,1.75
2019-02-15T23:42:51.266Z,1.70
2019-02-15T23:45:22.869Z,1.72
2019-02-15T23:47:54.561Z,1.77
2019-02-15T23:50:28.777Z,1.70
2019-02-15T23:53:00.387Z,1.68
2019-02-15T23:55:34.253Z,1.65
2019-02-15T23:58:07.183Z,1.66
